sensor_id;sensor_type;location;lat;lon;timestamp;P1;P2;P0
68198;PMS7003;55021;51.554;17.044;2022-12-29T00:04:44;22.25;18.75;10.50
68198;PMS7003;55021;51.554;17.044;2022-12-29T00:19:48;19.50;15.00;7.00
68198;PMS7003;55021;51.554;17.044;2022-12-29T00:34:50;17.00;13.00;6.75
68198;PMS7003;55021;51.554;17.044;2022-12-29T00:49:53;15.75;13.75;6.50
68198;PMS7003;55021;51.554;17.044;2022-12-29T01:04:55;24.75;21.75;10.75
68198;PMS7003;55021;51.554;17.044;2022-12-29T01:19:57;11.50;11.00;5.75
68198;PMS7003;55021;51.554;17.044;2022-12-29T01:35:00;16.00;11.25;5.00
68198;PMS7003;55021;51.554;17.044;2022-12-29T01:50:04;12.00;10.75;5.00
68198;PMS7003;55021;51.554;17.044;2022-12-29T02:05:13;16.00;12.00;5.75
68198;PMS7003;55021;51.554;17.044;2022-12-29T02:20:35;12.25;10.00;3.00
68198;PMS7003;55021;51.554;17.044;2022-12-29T02:35:54;10.00;10.00;5.00
68198;PMS7003;55021;51.554;17.044;2022-12-29T02:51:03;11.00;8.75;4.00
68198;PMS7003;55021;51.554;17.044;2022-12-29T03:21:35;10.00;10.00;5.00
68198;PMS7003;55021;51.554;17.044;2022-12-29T03:36:43;14.00;11.50;5.00
68198;PMS7003;55021;51.554;17.044;2022-12-29T03:51:49;11.00;8.75;3.00
68198;PMS7003;55021;51.554;17.044;2022-12-29T04:06:52;11.00;11.00;4.00
68198;PMS7003;55021;51.554;17.044;2022-12-29T04:21:54;14.75;13.00;7.00
68198;PMS7003;55021;51.554;17.044;2022-12-29T04:36:56;13.75;13.25;6.75
68198;PMS7003;55021;51.554;17.044;2022-12-29T04:51:59;10.25;10.00;4.50
68198;PMS7003;55021;51.554;17.044;2022-12-29T05:07:01;7.50;7.50;2.25
68198;PMS7003;55021;51.554;17.044;2022-12-29T05:22:04;7.75;7.75;2.25
68198;PMS7003;55021;51.554;17.044;2022-12-29T05:37:06;21.25;18.25;10.00
68198;PMS7003;55021;51.554;17.044;2022-12-29T05:52:09;10.50;10.50;5.00
68198;PMS7003;55021;51.554;17.044;2022-12-29T06:07:11;13.25;8.75;2.75
68198;PMS7003;55021;51.554;17.044;2022-12-29T06:22:13;15.75;13.75;7.00
68198;PMS7003;55021;51.554;17.044;2022-12-29T06:37:15;22.75;20.25;7.00
68198;PMS7003;55021;51.554;17.044;2022-12-29T06:52:18;8.50;8.00;3.00
68198;PMS7003;55021;51.554;17.044;2022-12-29T07:07:20;12.50;9.50;3.50
68198;PMS7003;55021;51.554;17.044;2022-12-29T07:22:26;10.75;8.00;3.00
68198;PMS7003;55021;51.554;17.044;2022-12-29T07:37:28;10.00;10.00;5.00
68198;PMS7003;55021;51.554;17.044;2022-12-29T07:52:31;10.25;10.00;2.50
68198;PMS7003;55021;51.554;17.044;2022-12-29T08:07:33;16.00;11.75;5.00
68198;PMS7003;55021;51.554;17.044;2022-12-29T08:22:36;19.00;17.00;7.00
68198;PMS7003;55021;51.554;17.044;2022-12-29T08:37:38;17.25;10.25;4.00
68198;PMS7003;55021;51.554;17.044;2022-12-29T08:52:40;10.00;10.00;4.00
68198;PMS7003;55021;51.554;17.044;2022-12-29T09:07:43;16.75;14.00;7.00
68198;PMS7003;55021;51.554;17.044;2022-12-29T09:22:46;13.75;13.25;6.25
68198;PMS7003;55021;51.554;17.044;2022-12-29T09:37:49;11.75;9.75;4.50
68198;PMS7003;55021;51.554;17.044;2022-12-29T09:52:52;8.75;8.00;3.00
68198;PMS7003;55021;51.554;17.044;2022-12-29T10:08:03;12.00;10.50;4.25
68198;PMS7003;55021;51.554;17.044;2022-12-29T10:23:24;18.00;14.50;7.00
68198;PMS7003;55021;51.554;17.044;2022-12-29T10:38:34;14.50;11.00;5.00
68198;PMS7003;55021;51.554;17.044;2022-12-29T10:53:40;9.25;9.25;6.00
68198;PMS7003;55021;51.554;17.044;2022-12-29T11:08:49;22.00;18.50;10.00
68198;PMS7003;55021;51.554;17.044;2022-12-29T11:23:57;14.00;12.25;6.50
68198;PMS7003;55021;51.554;17.044;2022-12-29T11:39:02;10.00;9.75;4.00
68198;PMS7003;55021;51.554;17.044;2022-12-29T11:54:05;16.50;14.50;8.00
68198;PMS7003;55021;51.554;17.044;2022-12-29T12:09:10;12.00;11.50;6.50
68198;PMS7003;55021;51.554;17.044;2022-12-29T12:24:29;11.25;11.25;5.25
68198;PMS7003;55021;51.554;17.044;2022-12-29T12:39:43;12.75;11.75;6.00
68198;PMS7003;55021;51.554;17.044;2022-12-29T12:54:57;15.25;13.00;7.75
68198;PMS7003;55021;51.554;17.044;2022-12-29T13:10:19;16.75;13.25;9.00
68198;PMS7003;55021;51.554;17.044;2022-12-29T13:25:34;16.50;15.00;8.75
68198;PMS7003;55021;51.554;17.044;2022-12-29T13:40:41;18.75;18.25;10.00
68198;PMS7003;55021;51.554;17.044;2022-12-29T13:55:49;12.50;11.50;5.25
68198;PMS7003;55021;51.554;17.044;2022-12-29T14:10:56;19.00;14.50;9.00
68198;PMS7003;55021;51.554;17.044;2022-12-29T14:26:09;16.00;13.25;7.00
68198;PMS7003;55021;51.554;17.044;2022-12-29T14:41:18;17.25;17.00;9.00
68198;PMS7003;55021;51.554;17.044;2022-12-29T14:56:28;14.50;14.50;7.50
68198;PMS7003;55021;51.554;17.044;2022-12-29T15:11:47;37.00;31.00;17.50
68198;PMS7003;55021;51.554;17.044;2022-12-29T15:26:54;18.00;16.00;9.25
68198;PMS7003;55021;51.554;17.044;2022-12-29T15:42:02;24.25;16.75;9.75
68198;PMS7003;55021;51.554;17.044;2022-12-29T15:57:19;19.00;16.25;9.00
68198;PMS7003;55021;51.554;17.044;2022-12-29T16:12:26;27.00;25.50;17.00
68198;PMS7003;55021;51.554;17.044;2022-12-29T16:27:34;24.25;22.75;14.00
68198;PMS7003;55021;51.554;17.044;2022-12-29T16:42:45;28.75;21.50;12.00
68198;PMS7003;55021;51.554;17.044;2022-12-29T16:57:49;30.25;29.50;15.00
68198;PMS7003;55021;51.554;17.044;2022-12-29T17:12:54;34.00;25.25;15.00
68198;PMS7003;55021;51.554;17.044;2022-12-29T17:27:57;32.00;26.25;15.00
68198;PMS7003;55021;51.554;17.044;2022-12-29T17:43:01;38.50;31.75;21.00
68198;PMS7003;55021;51.554;17.044;2022-12-29T17:58:12;57.25;41.50;24.75
68198;PMS7003;55021;51.554;17.044;2022-12-29T18:13:19;41.25;36.50;24.50
68198;PMS7003;55021;51.554;17.044;2022-12-29T18:28:24;40.00;36.25;22.00
68198;PMS7003;55021;51.554;17.044;2022-12-29T18:43:28;33.50;27.00;16.25
68198;PMS7003;55021;51.554;17.044;2022-12-29T18:58:54;39.50;34.00;22.25
68198;PMS7003;55021;51.554;17.044;2022-12-29T19:13:57;28.00;28.00;16.75
68198;PMS7003;55021;51.554;17.044;2022-12-29T19:29:01;30.75;28.00;17.00
68198;PMS7003;55021;51.554;17.044;2022-12-29T19:44:05;42.50;31.75;20.25
68198;PMS7003;55021;51.554;17.044;2022-12-29T19:59:07;32.00;28.00;17.00
68198;PMS7003;55021;51.554;17.044;2022-12-29T20:14:10;36.75;30.75;18.75
68198;PMS7003;55021;51.554;17.044;2022-12-29T20:29:13;38.00;33.25;18.00
68198;PMS7003;55021;51.554;17.044;2022-12-29T20:44:16;33.75;30.25;19.25
68198;PMS7003;55021;51.554;17.044;2022-12-29T20:59:18;37.75;32.25;20.25
68198;PMS7003;55021;51.554;17.044;2022-12-29T21:14:21;35.00;32.00;17.25
68198;PMS7003;55021;51.554;17.044;2022-12-29T21:29:23;37.00;29.00;17.75
68198;PMS7003;55021;51.554;17.044;2022-12-29T21:44:26;34.75;30.75;18.25
68198;PMS7003;55021;51.554;17.044;2022-12-29T21:59:29;38.50;32.75;20.25
68198;PMS7003;55021;51.554;17.044;2022-12-29T22:14:31;43.25;36.50;20.75
68198;PMS7003;55021;51.554;17.044;2022-12-29T22:29:34;37.25;33.25;19.50
68198;PMS7003;55021;51.554;17.044;2022-12-29T22:44:36;35.50;30.50;19.50
68198;PMS7003;55021;51.554;17.044;2022-12-29T22:59:39;39.00;35.00;21.00
68198;PMS7003;55021;51.554;17.044;2022-12-29T23:14:42;44.00;37.25;22.00
68198;PMS7003;55021;51.554;17.044;2022-12-29T23:29:45;33.00;27.75;17.00
68198;PMS7003;55021;51.554;17.044;2022-12-29T23:44:47;31.75;29.00;16.00
68198;PMS7003;55021;51.554;17.044;2022-12-29T23:59:49;33.75;32.50;18.00
